sensor_id;sensor_type;location;lat;lon;timestamp;P1;durP1;ratioP1;P2;durP2;ratioP2
74059;SDS011;62414;53.436;8.828;2023-03-23T00:00:38;42.10;;;17.03;;
74059;SDS011;62414;53.436;8.828;2023-03-23T00:03:03;39.80;;;16.83;;
74059;SDS011;62414;53.436;8.828;2023-03-23T00:05:29;43.50;;;17.87;;
74059;SDS011;62414;53.436;8.828;2023-03-23T00:07:54;43.83;;;17.48;;
74059;SDS011;62414;53.436;8.828;2023-03-23T00:10:20;39.07;;;16.93;;
74059;SDS011;62414;53.436;8.828;2023-03-23T00:12:47;40.43;;;17.23;;
74059;SDS011;62414;53.436;8.828;2023-03-23T00:15:12;41.87;;;16.67;;
74059;SDS011;62414;53.436;8.828;2023-03-23T00:17:38;37.85;;;17.00;;
74059;SDS011;62414;53.436;8.828;2023-03-23T00:20:04;39.27;;;16.50;;
74059;SDS011;62414;53.436;8.828;2023-03-23T00:22:30;39.42;;;17.27;;
74059;SDS011;62414;53.436;8.828;2023-03-23T00:24:56;39.40;;;16.67;;
74059;SDS011;62414;53.436;8.828;2023-03-23T00:27:21;38.90;;;16.40;;
74059;SDS011;62414;53.436;8.828;2023-03-23T00:29:49;39.92;;;16.67;;
74059;SDS011;62414;53.436;8.828;2023-03-23T00:32:16;37.15;;;16.30;;
74059;SDS011;62414;53.436;8.828;2023-03-23T00:34:42;36.23;;;16.33;;
74059;SDS011;62414;53.436;8.828;2023-03-23T00:37:07;37.83;;;16.97;;
74059;SDS011;62414;53.436;8.828;2023-03-23T00:39:34;38.88;;;17.40;;
74059;SDS011;62414;53.436;8.828;2023-03-23T00:41:59;37.53;;;17.47;;
74059;SDS011;62414;53.436;8.828;2023-03-23T00:44:25;37.88;;;17.60;;
74059;SDS011;62414;53.436;8.828;2023-03-23T00:46:52;35.83;;;16.67;;
74059;SDS011;62414;53.436;8.828;2023-03-23T00:49:18;36.30;;;15.95;;
74059;SDS011;62414;53.436;8.828;2023-03-23T00:51:44;38.67;;;16.77;;
74059;SDS011;62414;53.436;8.828;2023-03-23T00:54:10;36.83;;;17.63;;
74059;SDS011;62414;53.436;8.828;2023-03-23T00:56:36;41.35;;;17.90;;
74059;SDS011;62414;53.436;8.828;2023-03-23T00:59:02;39.47;;;18.03;;
74059;SDS011;62414;53.436;8.828;2023-03-23T01:01:28;37.13;;;17.10;;
74059;SDS011;62414;53.436;8.828;2023-03-23T01:03:55;41.75;;;18.10;;
74059;SDS011;62414;53.436;8.828;2023-03-23T01:06:20;39.93;;;17.70;;
74059;SDS011;62414;53.436;8.828;2023-03-23T01:08:45;37.60;;;17.83;;
74059;SDS011;62414;53.436;8.828;2023-03-23T01:11:11;40.53;;;18.50;;
74059;SDS011;62414;53.436;8.828;2023-03-23T01:13:38;40.72;;;18.67;;
74059;SDS011;62414;53.436;8.828;2023-03-23T01:16:04;42.87;;;18.70;;
74059;SDS011;62414;53.436;8.828;2023-03-23T01:18:29;42.57;;;19.20;;
74059;SDS011;62414;53.436;8.828;2023-03-23T01:20:56;44.63;;;18.95;;
74059;SDS011;62414;53.436;8.828;2023-03-23T01:23:21;42.88;;;18.83;;
74059;SDS011;62414;53.436;8.828;2023-03-23T01:25:47;45.37;;;19.30;;
74059;SDS011;62414;53.436;8.828;2023-03-23T01:28:13;43.90;;;19.08;;
74059;SDS011;62414;53.436;8.828;2023-03-23T01:30:38;45.73;;;19.80;;
74059;SDS011;62414;53.436;8.828;2023-03-23T01:33:04;42.53;;;19.33;;
74059;SDS011;62414;53.436;8.828;2023-03-23T01:35:29;36.93;;;17.60;;
74059;SDS011;62414;53.436;8.828;2023-03-23T01:37:56;42.05;;;19.50;;
74059;SDS011;62414;53.436;8.828;2023-03-23T01:40:21;42.30;;;19.75;;
74059;SDS011;62414;53.436;8.828;2023-03-23T01:42:47;44.37;;;20.23;;
74059;SDS011;62414;53.436;8.828;2023-03-23T01:45:21;40.47;;;18.25;;
74059;SDS011;62414;53.436;8.828;2023-03-23T01:47:49;40.42;;;19.30;;
74059;SDS011;62414;53.436;8.828;2023-03-23T01:50:17;39.73;;;18.67;;
74059;SDS011;62414;53.436;8.828;2023-03-23T01:52:43;40.72;;;19.13;;
74059;SDS011;62414;53.436;8.828;2023-03-23T01:55:10;40.77;;;19.40;;
74059;SDS011;62414;53.436;8.828;2023-03-23T01:57:35;39.53;;;18.37;;
74059;SDS011;62414;53.436;8.828;2023-03-23T02:00:03;39.20;;;18.08;;
74059;SDS011;62414;53.436;8.828;2023-03-23T02:02:39;37.45;;;17.83;;
74059;SDS011;62414;53.436;8.828;2023-03-23T02:05:07;40.22;;;18.30;;
74059;SDS011;62414;53.436;8.828;2023-03-23T02:07:36;40.40;;;19.20;;
74059;SDS011;62414;53.436;8.828;2023-03-23T02:10:03;36.55;;;18.35;;
74059;SDS011;62414;53.436;8.828;2023-03-23T02:12:33;37.33;;;18.20;;
74059;SDS011;62414;53.436;8.828;2023-03-23T02:14:59;36.78;;;18.25;;
74059;SDS011;62414;53.436;8.828;2023-03-23T02:17:26;34.08;;;17.17;;
74059;SDS011;62414;53.436;8.828;2023-03-23T02:20:01;45.27;;;17.57;;
74059;SDS011;62414;53.436;8.828;2023-03-23T02:25:24;34.75;;;16.95;;
74059;SDS011;62414;53.436;8.828;2023-03-23T02:28:04;34.78;;;17.38;;
74059;SDS011;62414;53.436;8.828;2023-03-23T02:30:39;34.92;;;17.10;;
74059;SDS011;62414;53.436;8.828;2023-03-23T02:33:14;32.73;;;16.80;;
74059;SDS011;62414;53.436;8.828;2023-03-23T02:35:46;32.88;;;16.48;;
74059;SDS011;62414;53.436;8.828;2023-03-23T02:38:14;33.85;;;16.50;;
74059;SDS011;62414;53.436;8.828;2023-03-23T02:40:42;33.58;;;16.45;;
74059;SDS011;62414;53.436;8.828;2023-03-23T02:43:10;32.60;;;15.98;;
74059;SDS011;62414;53.436;8.828;2023-03-23T02:45:37;31.20;;;15.53;;
74059;SDS011;62414;53.436;8.828;2023-03-23T02:48:03;33.92;;;16.98;;
74059;SDS011;62414;53.436;8.828;2023-03-23T02:50:31;29.33;;;15.70;;
74059;SDS011;62414;53.436;8.828;2023-03-23T02:52:57;29.20;;;15.60;;
74059;SDS011;62414;53.436;8.828;2023-03-23T02:55:24;29.87;;;14.80;;
74059;SDS011;62414;53.436;8.828;2023-03-23T02:57:51;28.70;;;14.32;;
74059;SDS011;62414;53.436;8.828;2023-03-23T03:00:18;27.80;;;14.43;;
74059;SDS011;62414;53.436;8.828;2023-03-23T03:02:44;29.17;;;13.87;;
74059;SDS011;62414;53.436;8.828;2023-03-23T03:05:13;26.07;;;13.53;;
74059;SDS011;62414;53.436;8.828;2023-03-23T03:07:47;24.75;;;13.60;;
74059;SDS011;62414;53.436;8.828;2023-03-23T03:10:18;27.60;;;13.85;;
74059;SDS011;62414;53.436;8.828;2023-03-23T03:12:50;27.60;;;13.38;;
74059;SDS011;62414;53.436;8.828;2023-03-23T03:15:22;24.08;;;12.63;;
74059;SDS011;62414;53.436;8.828;2023-03-23T03:17:51;25.63;;;13.23;;
74059;SDS011;62414;53.436;8.828;2023-03-23T03:20:20;22.17;;;12.07;;
74059;SDS011;62414;53.436;8.828;2023-03-23T03:22:48;22.80;;;11.65;;
74059;SDS011;62414;53.436;8.828;2023-03-23T03:25:14;19.05;;;11.40;;
74059;SDS011;62414;53.436;8.828;2023-03-23T03:27:40;21.35;;;11.23;;
74059;SDS011;62414;53.436;8.828;2023-03-23T03:30:14;22.03;;;11.60;;
74059;SDS011;62414;53.436;8.828;2023-03-23T03:32:44;22.73;;;11.52;;
74059;SDS011;62414;53.436;8.828;2023-03-23T03:35:12;20.92;;;11.27;;
74059;SDS011;62414;53.436;8.828;2023-03-23T03:37:38;23.52;;;12.07;;
74059;SDS011;62414;53.436;8.828;2023-03-23T03:40:07;22.77;;;11.70;;
74059;SDS011;62414;53.436;8.828;2023-03-23T03:42:34;23.08;;;12.60;;
74059;SDS011;62414;53.436;8.828;2023-03-23T03:45:00;22.23;;;12.03;;
74059;SDS011;62414;53.436;8.828;2023-03-23T03:47:27;23.63;;;12.02;;
74059;SDS011;62414;53.436;8.828;2023-03-23T03:49:52;24.08;;;11.93;;
74059;SDS011;62414;53.436;8.828;2023-03-23T03:52:18;24.60;;;12.47;;
74059;SDS011;62414;53.436;8.828;2023-03-23T03:54:43;21.23;;;11.57;;
74059;SDS011;62414;53.436;8.828;2023-03-23T03:57:10;22.55;;;11.63;;
74059;SDS011;62414;53.436;8.828;2023-03-23T04:00:06;20.30;;;11.48;;
74059;SDS011;62414;53.436;8.828;2023-03-23T04:02:45;23.10;;;11.60;;
74059;SDS011;62414;53.436;8.828;2023-03-23T04:05:11;20.73;;;11.32;;
74059;SDS011;62414;53.436;8.828;2023-03-23T04:07:37;22.05;;;10.95;;
74059;SDS011;62414;53.436;8.828;2023-03-23T04:10:04;20.80;;;10.32;;
74059;SDS011;62414;53.436;8.828;2023-03-23T04:12:32;22.27;;;11.13;;
74059;SDS011;62414;53.436;8.828;2023-03-23T04:15:16;18.93;;;10.27;;
74059;SDS011;62414;53.436;8.828;2023-03-23T04:17:42;21.98;;;10.02;;
74059;SDS011;62414;53.436;8.828;2023-03-23T04:20:08;21.53;;;9.30;;
74059;SDS011;62414;53.436;8.828;2023-03-23T04:22:35;17.92;;;9.45;;
74059;SDS011;62414;53.436;8.828;2023-03-23T04:25:02;20.73;;;9.48;;
74059;SDS011;62414;53.436;8.828;2023-03-23T04:27:28;16.25;;;8.68;;
74059;SDS011;62414;53.436;8.828;2023-03-23T04:29:58;16.33;;;9.25;;
74059;SDS011;62414;53.436;8.828;2023-03-23T04:32:42;17.77;;;9.17;;
74059;SDS011;62414;53.436;8.828;2023-03-23T04:35:10;18.73;;;9.00;;
74059;SDS011;62414;53.436;8.828;2023-03-23T04:37:41;17.75;;;9.00;;
74059;SDS011;62414;53.436;8.828;2023-03-23T04:40:08;15.05;;;8.52;;
74059;SDS011;62414;53.436;8.828;2023-03-23T04:42:34;17.90;;;8.82;;
74059;SDS011;62414;53.436;8.828;2023-03-23T04:45:30;17.13;;;8.50;;
74059;SDS011;62414;53.436;8.828;2023-03-23T04:47:58;17.42;;;8.63;;
74059;SDS011;62414;53.436;8.828;2023-03-23T04:50:33;16.52;;;8.88;;
74059;SDS011;62414;53.436;8.828;2023-03-23T04:53:08;18.52;;;9.45;;
74059;SDS011;62414;53.436;8.828;2023-03-23T04:55:35;18.83;;;9.27;;
74059;SDS011;62414;53.436;8.828;2023-03-23T04:58:02;19.38;;;9.45;;
74059;SDS011;62414;53.436;8.828;2023-03-23T05:00:40;16.23;;;8.95;;
74059;SDS011;62414;53.436;8.828;2023-03-23T05:03:06;16.80;;;8.85;;
74059;SDS011;62414;53.436;8.828;2023-03-23T05:05:31;18.13;;;9.00;;
74059;SDS011;62414;53.436;8.828;2023-03-23T05:08:03;16.55;;;8.77;;
74059;SDS011;62414;53.436;8.828;2023-03-23T05:10:31;16.80;;;8.52;;
74059;SDS011;62414;53.436;8.828;2023-03-23T05:13:03;19.05;;;9.00;;
74059;SDS011;62414;53.436;8.828;2023-03-23T05:15:28;16.23;;;7.90;;
74059;SDS011;62414;53.436;8.828;2023-03-23T05:17:57;14.98;;;8.32;;
74059;SDS011;62414;53.436;8.828;2023-03-23T05:20:23;16.25;;;7.90;;
74059;SDS011;62414;53.436;8.828;2023-03-23T05:22:52;16.70;;;8.07;;
74059;SDS011;62414;53.436;8.828;2023-03-23T05:25:23;17.55;;;8.27;;
74059;SDS011;62414;53.436;8.828;2023-03-23T05:27:57;14.98;;;7.65;;
74059;SDS011;62414;53.436;8.828;2023-03-23T05:30:35;14.77;;;7.90;;
74059;SDS011;62414;53.436;8.828;2023-03-23T05:33:03;16.58;;;7.70;;
74059;SDS011;62414;53.436;8.828;2023-03-23T05:36:00;17.93;;;7.90;;
74059;SDS011;62414;53.436;8.828;2023-03-23T05:38:33;14.05;;;7.93;;
74059;SDS011;62414;53.436;8.828;2023-03-23T05:40:59;14.63;;;7.93;;
74059;SDS011;62414;53.436;8.828;2023-03-23T05:43:27;17.13;;;8.10;;
74059;SDS011;62414;53.436;8.828;2023-03-23T05:46:13;14.15;;;7.72;;
74059;SDS011;62414;53.436;8.828;2023-03-23T05:48:40;15.30;;;8.13;;
74059;SDS011;62414;53.436;8.828;2023-03-23T05:51:11;15.95;;;7.50;;
74059;SDS011;62414;53.436;8.828;2023-03-23T05:53:40;16.15;;;7.97;;
74059;SDS011;62414;53.436;8.828;2023-03-23T05:56:05;15.57;;;7.87;;
74059;SDS011;62414;53.436;8.828;2023-03-23T05:58:46;15.27;;;7.05;;
74059;SDS011;62414;53.436;8.828;2023-03-23T06:01:12;13.40;;;7.25;;
74059;SDS011;62414;53.436;8.828;2023-03-23T06:03:38;15.40;;;7.20;;
74059;SDS011;62414;53.436;8.828;2023-03-23T06:06:11;14.93;;;7.07;;
74059;SDS011;62414;53.436;8.828;2023-03-23T06:08:48;14.93;;;7.18;;
74059;SDS011;62414;53.436;8.828;2023-03-23T06:11:14;13.18;;;7.05;;
74059;SDS011;62414;53.436;8.828;2023-03-23T06:13:48;15.55;;;7.28;;
74059;SDS011;62414;53.436;8.828;2023-03-23T06:16:14;12.70;;;7.07;;
74059;SDS011;62414;53.436;8.828;2023-03-23T06:18:49;13.43;;;7.07;;
74059;SDS011;62414;53.436;8.828;2023-03-23T06:21:20;15.18;;;7.18;;
74059;SDS011;62414;53.436;8.828;2023-03-23T06:23:55;15.63;;;6.72;;
74059;SDS011;62414;53.436;8.828;2023-03-23T06:26:23;12.05;;;6.47;;
74059;SDS011;62414;53.436;8.828;2023-03-23T06:28:56;12.20;;;6.53;;
74059;SDS011;62414;53.436;8.828;2023-03-23T06:31:21;12.55;;;6.45;;
74059;SDS011;62414;53.436;8.828;2023-03-23T06:33:48;12.45;;;6.32;;
74059;SDS011;62414;53.436;8.828;2023-03-23T06:36:24;13.45;;;6.35;;
74059;SDS011;62414;53.436;8.828;2023-03-23T06:38:58;11.77;;;6.60;;
74059;SDS011;62414;53.436;8.828;2023-03-23T06:41:33;14.23;;;8.43;;
74059;SDS011;62414;53.436;8.828;2023-03-23T06:43:58;15.23;;;8.27;;
74059;SDS011;62414;53.436;8.828;2023-03-23T06:46:28;19.95;;;9.55;;
74059;SDS011;62414;53.436;8.828;2023-03-23T06:49:17;17.77;;;10.33;;
74059;SDS011;62414;53.436;8.828;2023-03-23T06:51:55;32.90;;;12.40;;
74059;SDS011;62414;53.436;8.828;2023-03-23T06:54:21;23.08;;;12.85;;
74059;SDS011;62414;53.436;8.828;2023-03-23T06:56:47;12.65;;;5.38;;
74059;SDS011;62414;53.436;8.828;2023-03-23T06:59:13;14.30;;;4.40;;
74059;SDS011;62414;53.436;8.828;2023-03-23T07:01:39;7.43;;;2.08;;
74059;SDS011;62414;53.436;8.828;2023-03-23T07:04:04;3.87;;;1.40;;
74059;SDS011;62414;53.436;8.828;2023-03-23T07:06:39;6.15;;;1.88;;
74059;SDS011;62414;53.436;8.828;2023-03-23T07:09:08;6.68;;;1.55;;
74059;SDS011;62414;53.436;8.828;2023-03-23T07:11:34;6.15;;;1.52;;
74059;SDS011;62414;53.436;8.828;2023-03-23T07:14:05;4.65;;;1.20;;
74059;SDS011;62414;53.436;8.828;2023-03-23T07:16:31;4.37;;;1.20;;
74059;SDS011;62414;53.436;8.828;2023-03-23T07:18:56;5.33;;;1.40;;
74059;SDS011;62414;53.436;8.828;2023-03-23T07:21:22;6.22;;;1.60;;
74059;SDS011;62414;53.436;8.828;2023-03-23T07:23:48;7.22;;;1.85;;
74059;SDS011;62414;53.436;8.828;2023-03-23T07:26:28;6.50;;;1.40;;
74059;SDS011;62414;53.436;8.828;2023-03-23T07:28:55;6.30;;;1.67;;
74059;SDS011;62414;53.436;8.828;2023-03-23T07:31:32;8.20;;;1.77;;
74059;SDS011;62414;53.436;8.828;2023-03-23T07:33:58;10.67;;;1.93;;
74059;SDS011;62414;53.436;8.828;2023-03-23T07:36:31;6.18;;;1.48;;
74059;SDS011;62414;53.436;8.828;2023-03-23T07:38:57;6.93;;;1.45;;
74059;SDS011;62414;53.436;8.828;2023-03-23T07:41:23;7.32;;;1.50;;
74059;SDS011;62414;53.436;8.828;2023-03-23T07:43:52;7.07;;;1.60;;
74059;SDS011;62414;53.436;8.828;2023-03-23T07:46:22;6.07;;;1.80;;
74059;SDS011;62414;53.436;8.828;2023-03-23T07:48:57;11.27;;;3.75;;
74059;SDS011;62414;53.436;8.828;2023-03-23T07:51:30;9.73;;;3.05;;
74059;SDS011;62414;53.436;8.828;2023-03-23T07:53:56;8.67;;;3.50;;
74059;SDS011;62414;53.436;8.828;2023-03-23T07:56:40;10.43;;;3.75;;
74059;SDS011;62414;53.436;8.828;2023-03-23T07:59:12;15.73;;;4.05;;
74059;SDS011;62414;53.436;8.828;2023-03-23T08:01:40;11.20;;;4.20;;
74059;SDS011;62414;53.436;8.828;2023-03-23T08:04:43;12.70;;;4.40;;
74059;SDS011;62414;53.436;8.828;2023-03-23T08:07:30;10.75;;;3.95;;
74059;SDS011;62414;53.436;8.828;2023-03-23T08:10:16;11.52;;;3.97;;
74059;SDS011;62414;53.436;8.828;2023-03-23T08:13:04;10.35;;;3.40;;
74059;SDS011;62414;53.436;8.828;2023-03-23T08:15:54;12.43;;;3.33;;
74059;SDS011;62414;53.436;8.828;2023-03-23T08:18:38;10.88;;;3.10;;
74059;SDS011;62414;53.436;8.828;2023-03-23T08:21:35;10.20;;;2.80;;
74059;SDS011;62414;53.436;8.828;2023-03-23T08:24:36;12.40;;;2.97;;
74059;SDS011;62414;53.436;8.828;2023-03-23T08:27:21;10.93;;;2.53;;
74059;SDS011;62414;53.436;8.828;2023-03-23T08:30:22;10.40;;;2.13;;
74059;SDS011;62414;53.436;8.828;2023-03-23T08:33:28;10.25;;;2.55;;
74059;SDS011;62414;53.436;8.828;2023-03-23T08:36:20;7.40;;;2.00;;
74059;SDS011;62414;53.436;8.828;2023-03-23T08:39:04;8.02;;;1.98;;
74059;SDS011;62414;53.436;8.828;2023-03-23T08:41:53;7.78;;;1.50;;
74059;SDS011;62414;53.436;8.828;2023-03-23T08:44:53;10.03;;;2.27;;
74059;SDS011;62414;53.436;8.828;2023-03-23T08:47:40;11.73;;;1.90;;
74059;SDS011;62414;53.436;8.828;2023-03-23T08:50:20;12.15;;;2.58;;
74059;SDS011;62414;53.436;8.828;2023-03-23T08:53:05;13.40;;;2.00;;
74059;SDS011;62414;53.436;8.828;2023-03-23T08:55:39;8.80;;;2.10;;
74059;SDS011;62414;53.436;8.828;2023-03-23T08:58:21;11.80;;;2.63;;
74059;SDS011;62414;53.436;8.828;2023-03-23T09:01:04;8.55;;;1.80;;
74059;SDS011;62414;53.436;8.828;2023-03-23T09:03:43;9.90;;;2.03;;
74059;SDS011;62414;53.436;8.828;2023-03-23T09:06:49;9.30;;;1.90;;
74059;SDS011;62414;53.436;8.828;2023-03-23T09:09:14;9.43;;;1.88;;
74059;SDS011;62414;53.436;8.828;2023-03-23T09:11:39;14.40;;;1.90;;
74059;SDS011;62414;53.436;8.828;2023-03-23T09:14:06;10.47;;;1.87;;
74059;SDS011;62414;53.436;8.828;2023-03-23T09:16:32;12.75;;;1.80;;
74059;SDS011;62414;53.436;8.828;2023-03-23T09:18:58;11.70;;;1.80;;
74059;SDS011;62414;53.436;8.828;2023-03-23T09:21:23;13.27;;;2.43;;
74059;SDS011;62414;53.436;8.828;2023-03-23T09:23:50;9.80;;;1.80;;
74059;SDS011;62414;53.436;8.828;2023-03-23T09:26:16;12.57;;;1.90;;
74059;SDS011;62414;53.436;8.828;2023-03-23T09:28:41;11.53;;;2.17;;
74059;SDS011;62414;53.436;8.828;2023-03-23T09:31:07;14.50;;;2.30;;
74059;SDS011;62414;53.436;8.828;2023-03-23T09:33:32;8.03;;;2.33;;
74059;SDS011;62414;53.436;8.828;2023-03-23T09:35:58;12.40;;;2.20;;
74059;SDS011;62414;53.436;8.828;2023-03-23T09:38:23;11.80;;;1.87;;
74059;SDS011;62414;53.436;8.828;2023-03-23T09:40:52;17.35;;;2.35;;
74059;SDS011;62414;53.436;8.828;2023-03-23T09:43:35;13.77;;;1.90;;
74059;SDS011;62414;53.436;8.828;2023-03-23T09:46:23;9.73;;;2.17;;
74059;SDS011;62414;53.436;8.828;2023-03-23T09:48:54;15.80;;;2.15;;
74059;SDS011;62414;53.436;8.828;2023-03-23T09:51:28;15.27;;;2.65;;
74059;SDS011;62414;53.436;8.828;2023-03-23T09:54:02;12.65;;;2.40;;
74059;SDS011;62414;53.436;8.828;2023-03-23T09:56:31;15.40;;;2.03;;
74059;SDS011;62414;53.436;8.828;2023-03-23T09:58:59;14.55;;;2.33;;
74059;SDS011;62414;53.436;8.828;2023-03-23T10:01:27;13.93;;;2.42;;
74059;SDS011;62414;53.436;8.828;2023-03-23T10:04:09;12.85;;;2.00;;
74059;SDS011;62414;53.436;8.828;2023-03-23T10:06:37;13.63;;;2.40;;
74059;SDS011;62414;53.436;8.828;2023-03-23T10:09:03;15.17;;;2.53;;
74059;SDS011;62414;53.436;8.828;2023-03-23T10:11:33;17.10;;;2.30;;
74059;SDS011;62414;53.436;8.828;2023-03-23T10:14:07;15.95;;;2.35;;
74059;SDS011;62414;53.436;8.828;2023-03-23T10:16:40;12.30;;;2.33;;
74059;SDS011;62414;53.436;8.828;2023-03-23T10:19:10;14.65;;;2.33;;
74059;SDS011;62414;53.436;8.828;2023-03-23T10:21:38;14.70;;;2.10;;
74059;SDS011;62414;53.436;8.828;2023-03-23T10:24:07;10.75;;;1.95;;
74059;SDS011;62414;53.436;8.828;2023-03-23T10:26:39;19.13;;;2.67;;
74059;SDS011;62414;53.436;8.828;2023-03-23T10:29:11;14.40;;;1.90;;
74059;SDS011;62414;53.436;8.828;2023-03-23T10:31:39;12.98;;;1.98;;
74059;SDS011;62414;53.436;8.828;2023-03-23T10:34:10;11.27;;;1.80;;
74059;SDS011;62414;53.436;8.828;2023-03-23T10:36:39;14.75;;;2.00;;
74059;SDS011;62414;53.436;8.828;2023-03-23T10:39:14;12.77;;;1.80;;
74059;SDS011;62414;53.436;8.828;2023-03-23T10:41:43;15.10;;;1.90;;
74059;SDS011;62414;53.436;8.828;2023-03-23T10:44:09;13.50;;;2.00;;
74059;SDS011;62414;53.436;8.828;2023-03-23T10:46:37;13.63;;;1.90;;
74059;SDS011;62414;53.436;8.828;2023-03-23T10:49:06;10.70;;;1.80;;
74059;SDS011;62414;53.436;8.828;2023-03-23T10:51:34;14.18;;;2.20;;
74059;SDS011;62414;53.436;8.828;2023-03-23T10:54:02;14.43;;;2.03;;
74059;SDS011;62414;53.436;8.828;2023-03-23T10:56:29;16.35;;;2.40;;
74059;SDS011;62414;53.436;8.828;2023-03-23T10:59:11;14.05;;;2.38;;
74059;SDS011;62414;53.436;8.828;2023-03-23T11:01:38;15.02;;;2.65;;
74059;SDS011;62414;53.436;8.828;2023-03-23T11:04:03;15.90;;;2.13;;
74059;SDS011;62414;53.436;8.828;2023-03-23T11:06:36;13.15;;;2.75;;
74059;SDS011;62414;53.436;8.828;2023-03-23T11:09:03;15.73;;;2.30;;
74059;SDS011;62414;53.436;8.828;2023-03-23T11:11:37;15.98;;;1.95;;
74059;SDS011;62414;53.436;8.828;2023-03-23T11:14:14;12.43;;;2.00;;
74059;SDS011;62414;53.436;8.828;2023-03-23T11:16:42;14.15;;;2.38;;
74059;SDS011;62414;53.436;8.828;2023-03-23T11:19:12;13.43;;;2.40;;
74059;SDS011;62414;53.436;8.828;2023-03-23T11:21:39;14.07;;;2.30;;
74059;SDS011;62414;53.436;8.828;2023-03-23T11:24:05;11.20;;;2.15;;
74059;SDS011;62414;53.436;8.828;2023-03-23T11:26:31;12.02;;;2.20;;
74059;SDS011;62414;53.436;8.828;2023-03-23T11:28:58;9.57;;;2.75;;
74059;SDS011;62414;53.436;8.828;2023-03-23T11:31:30;11.27;;;2.73;;
74059;SDS011;62414;53.436;8.828;2023-03-23T11:33:57;13.18;;;3.10;;
74059;SDS011;62414;53.436;8.828;2023-03-23T11:36:28;12.32;;;3.17;;
74059;SDS011;62414;53.436;8.828;2023-03-23T11:38:55;13.35;;;2.78;;
74059;SDS011;62414;53.436;8.828;2023-03-23T11:41:21;12.53;;;3.00;;
74059;SDS011;62414;53.436;8.828;2023-03-23T11:43:47;16.33;;;3.13;;
74059;SDS011;62414;53.436;8.828;2023-03-23T11:46:18;11.50;;;2.35;;
74059;SDS011;62414;53.436;8.828;2023-03-23T11:48:52;12.43;;;2.90;;
74059;SDS011;62414;53.436;8.828;2023-03-23T11:51:23;15.97;;;2.70;;
74059;SDS011;62414;53.436;8.828;2023-03-23T11:54:04;13.63;;;2.60;;
74059;SDS011;62414;53.436;8.828;2023-03-23T11:56:36;10.65;;;2.45;;
74059;SDS011;62414;53.436;8.828;2023-03-23T11:59:02;14.95;;;2.67;;
74059;SDS011;62414;53.436;8.828;2023-03-23T12:01:40;14.70;;;3.03;;
74059;SDS011;62414;53.436;8.828;2023-03-23T12:04:26;14.53;;;3.27;;
74059;SDS011;62414;53.436;8.828;2023-03-23T12:06:58;13.65;;;3.25;;
74059;SDS011;62414;53.436;8.828;2023-03-23T12:09:35;14.35;;;3.35;;
74059;SDS011;62414;53.436;8.828;2023-03-23T12:12:07;11.57;;;3.00;;
74059;SDS011;62414;53.436;8.828;2023-03-23T12:14:40;14.45;;;3.20;;
74059;SDS011;62414;53.436;8.828;2023-03-23T12:17:15;14.37;;;3.53;;
74059;SDS011;62414;53.436;8.828;2023-03-23T12:19:50;11.40;;;3.28;;
74059;SDS011;62414;53.436;8.828;2023-03-23T12:22:31;10.68;;;3.15;;
74059;SDS011;62414;53.436;8.828;2023-03-23T12:25:09;15.60;;;3.65;;
74059;SDS011;62414;53.436;8.828;2023-03-23T12:27:45;12.45;;;3.53;;
74059;SDS011;62414;53.436;8.828;2023-03-23T12:30:17;15.70;;;3.67;;
74059;SDS011;62414;53.436;8.828;2023-03-23T12:32:53;13.57;;;3.60;;
74059;SDS011;62414;53.436;8.828;2023-03-23T12:35:27;14.80;;;4.00;;
74059;SDS011;62414;53.436;8.828;2023-03-23T12:38:02;15.52;;;3.83;;
74059;SDS011;62414;53.436;8.828;2023-03-23T12:40:40;11.30;;;2.80;;
74059;SDS011;62414;53.436;8.828;2023-03-23T12:43:13;13.20;;;3.00;;
74059;SDS011;62414;53.436;8.828;2023-03-23T12:45:47;14.45;;;3.30;;
74059;SDS011;62414;53.436;8.828;2023-03-23T12:48:20;10.70;;;2.60;;
74059;SDS011;62414;53.436;8.828;2023-03-23T12:51:00;10.80;;;2.97;;
74059;SDS011;62414;53.436;8.828;2023-03-23T12:53:44;11.80;;;2.80;;
74059;SDS011;62414;53.436;8.828;2023-03-23T12:56:14;6.77;;;1.77;;
74059;SDS011;62414;53.436;8.828;2023-03-23T12:58:43;6.03;;;1.23;;
74059;SDS011;62414;53.436;8.828;2023-03-23T13:01:10;6.25;;;1.20;;
74059;SDS011;62414;53.436;8.828;2023-03-23T13:03:38;7.25;;;1.40;;
74059;SDS011;62414;53.436;8.828;2023-03-23T13:06:07;5.88;;;1.02;;
74059;SDS011;62414;53.436;8.828;2023-03-23T13:08:38;6.23;;;1.27;;
74059;SDS011;62414;53.436;8.828;2023-03-23T13:11:08;9.05;;;2.15;;
74059;SDS011;62414;53.436;8.828;2023-03-23T13:13:40;7.38;;;2.00;;
74059;SDS011;62414;53.436;8.828;2023-03-23T13:16:11;17.38;;;4.95;;
74059;SDS011;62414;53.436;8.828;2023-03-23T13:18:42;11.05;;;2.45;;
74059;SDS011;62414;53.436;8.828;2023-03-23T13:21:14;7.57;;;1.93;;
74059;SDS011;62414;53.436;8.828;2023-03-23T13:23:44;8.95;;;2.10;;
74059;SDS011;62414;53.436;8.828;2023-03-23T13:26:12;10.48;;;2.00;;
74059;SDS011;62414;53.436;8.828;2023-03-23T13:28:49;6.90;;;1.80;;
74059;SDS011;62414;53.436;8.828;2023-03-23T13:31:20;7.53;;;1.88;;
74059;SDS011;62414;53.436;8.828;2023-03-23T13:33:49;8.60;;;1.80;;
74059;SDS011;62414;53.436;8.828;2023-03-23T13:36:24;7.53;;;1.60;;
74059;SDS011;62414;53.436;8.828;2023-03-23T13:38:52;9.20;;;1.90;;
74059;SDS011;62414;53.436;8.828;2023-03-23T13:41:18;7.50;;;1.83;;
74059;SDS011;62414;53.436;8.828;2023-03-23T13:43:44;6.70;;;1.70;;
74059;SDS011;62414;53.436;8.828;2023-03-23T13:46:11;6.67;;;1.80;;
74059;SDS011;62414;53.436;8.828;2023-03-23T13:48:45;7.97;;;1.60;;
74059;SDS011;62414;53.436;8.828;2023-03-23T13:51:26;6.68;;;1.67;;
74059;SDS011;62414;53.436;8.828;2023-03-23T13:54:05;7.50;;;1.70;;
74059;SDS011;62414;53.436;8.828;2023-03-23T13:56:34;5.03;;;1.55;;
74059;SDS011;62414;53.436;8.828;2023-03-23T13:59:05;7.87;;;1.83;;
74059;SDS011;62414;53.436;8.828;2023-03-23T14:01:32;7.18;;;1.63;;
74059;SDS011;62414;53.436;8.828;2023-03-23T14:03:59;8.45;;;2.00;;
74059;SDS011;62414;53.436;8.828;2023-03-23T14:06:26;9.30;;;1.95;;
74059;SDS011;62414;53.436;8.828;2023-03-23T14:09:20;7.30;;;1.63;;
74059;SDS011;62414;53.436;8.828;2023-03-23T14:11:49;8.03;;;1.93;;
74059;SDS011;62414;53.436;8.828;2023-03-23T14:14:18;8.27;;;1.95;;
74059;SDS011;62414;53.436;8.828;2023-03-23T14:16:48;9.98;;;1.83;;
74059;SDS011;62414;53.436;8.828;2023-03-23T14:19:15;8.55;;;2.25;;
74059;SDS011;62414;53.436;8.828;2023-03-23T14:21:50;8.15;;;1.80;;
74059;SDS011;62414;53.436;8.828;2023-03-23T14:24:19;7.33;;;2.20;;
74059;SDS011;62414;53.436;8.828;2023-03-23T14:26:45;7.47;;;2.13;;
74059;SDS011;62414;53.436;8.828;2023-03-23T14:29:11;6.97;;;2.13;;
74059;SDS011;62414;53.436;8.828;2023-03-23T14:31:38;7.90;;;1.83;;
74059;SDS011;62414;53.436;8.828;2023-03-23T14:34:04;8.70;;;1.85;;
74059;SDS011;62414;53.436;8.828;2023-03-23T14:36:37;8.65;;;1.98;;
74059;SDS011;62414;53.436;8.828;2023-03-23T14:39:06;9.13;;;2.10;;
74059;SDS011;62414;53.436;8.828;2023-03-23T14:41:43;7.10;;;2.00;;
74059;SDS011;62414;53.436;8.828;2023-03-23T14:44:11;10.77;;;2.00;;
74059;SDS011;62414;53.436;8.828;2023-03-23T14:46:38;9.70;;;2.00;;
74059;SDS011;62414;53.436;8.828;2023-03-23T14:49:04;7.83;;;1.80;;
74059;SDS011;62414;53.436;8.828;2023-03-23T14:51:30;7.93;;;2.15;;
74059;SDS011;62414;53.436;8.828;2023-03-23T14:53:57;10.50;;;1.90;;
74059;SDS011;62414;53.436;8.828;2023-03-23T14:56:30;9.55;;;1.90;;
74059;SDS011;62414;53.436;8.828;2023-03-23T14:59:02;11.02;;;2.03;;